This is the latest recevied weather packets stored in our database for station/object VA3PC-13. If no packets are shown the sender has not sent any weather packets the latest 10 day(s).
| Time | Temp. | Humidity | Pressure | Rain* | Wind** | Luminosity | Snow |
|---|---|---|---|---|---|---|---|
| 1777446925 | 6.11° C | 86% | 983 hPa | 0 mm | - | 0 W/m² | - |
| 1777444526 | 6.67° C | 88% | 982.5 hPa | 0 mm | - | 0 W/m² | - |
| 1777440948 | 7.22° C | 90% | 982.2 hPa | 0 mm | - | 0 W/m² | - |
| 1777439148 | 7.22° C | 91% | 982.7 hPa | 0 mm | - | 0 W/m² | - |
| 1777436748 | 7.22° C | 91% | 982.8 hPa | 0 mm | - | 0 W/m² | - |
| 1777432529 | 7.22° C | 91% | 982.4 hPa | 0 mm | - | 0 W/m² | - |
| 1777430749 | 7.78° C | 90% | 982.4 hPa | 0 mm | - | 0 W/m² | - |
| 1777427750 | 7.78° C | 91% | 982.4 hPa | 0 mm | - | 0 W/m² | - |
| 1777427130 | 7.78° C | 92% | 982.2 hPa | 0 mm | - | 0 W/m² | - |
| 1777424131 | 8.33° C | 94% | 981.3 hPa | 0 mm | - | 0 W/m² | - |
| 1777422332 | 8.33° C | 94% | 981 hPa | 0 mm | - | 2 W/m² | - |
| 1777416318 | 10° C | 94% | 979.8 hPa | 0 mm | - | 121 W/m² | - |
| 1777414518 | 10.56° C | 96% | 979.5 hPa | 0 mm | - | 40 W/m² | - |
| 1777412719 | 10.56° C | 97% | 978.7 hPa | 0 mm | - | 196 W/m² | - |
| 1777412118 | 10.56° C | 97% | 978.7 hPa | 0 mm | - | 122 W/m² | - |
| 1777410940 | 10.56° C | 97% | 978.5 hPa | 0 mm | - | 76 W/m² | - |
| 1777410319 | 11.11° C | 97% | 978.4 hPa | 0 mm | - | 70 W/m² | - |
| 1777408519 | 11.67° C | 97% | 977.8 hPa | 0 mm | - | 71 W/m² | - |
| 1777398319 | 11.11° C | 96% | 976.6 hPa | 0 mm | - | 132 W/m² | - |
| 1777396537 | 11.11° C | 94% | 976.4 hPa | 0 mm | - | 230 W/m² | - |
| 1777394117 | 11.11° C | 95% | 976.5 hPa | 0 mm | - | 245 W/m² | - |
| 1777389918 | 10.56° C | 94% | 977 hPa | 2.54 mm | - | 35 W/m² | - |
| 1777388158 | 10° C | 95% | 976.9 hPa | 6.6 mm | - | 123 W/m² | - |
| 1777385119 | 10° C | 95% | 977.4 hPa | 9.4 mm | - | 31 W/m² | - |
| 1777382719 | 10.56° C | 91% | 977.8 hPa | 3.81 mm | - | 38 W/m² | - |
* Rain latest hour (hover to see other rain measurements)
** Current wind speed in m/s (hover to see current wind gust speed)